createdAt,value
2017-09-29T00:00:32.759Z,21.9
2017-09-29T00:02:32.904Z,21.9
2017-09-29T00:04:33.263Z,22.4
2017-09-29T00:06:33.245Z,21.299999999999997
2017-09-29T00:08:33.364Z,21.9
2017-09-29T00:10:33.492Z,21.299999999999997
2017-09-29T00:12:33.622Z,21.9
2017-09-29T00:14:33.827Z,21.9
2017-09-29T00:16:34.052Z,21.9
2017-09-29T00:18:34.128Z,20.799999999999997
2017-09-29T00:20:34.267Z,21.9
2017-09-29T00:22:34.540Z,21.9
2017-09-29T00:24:34.657Z,21.9
2017-09-29T00:26:34.782Z,21.299999999999997
2017-09-29T00:28:34.937Z,21.299999999999997
2017-09-29T00:30:35.044Z,21.299999999999997
2017-09-29T00:32:35.209Z,21.9
2017-09-29T00:34:35.432Z,21.9
2017-09-29T00:36:35.432Z,21.9
2017-09-29T00:38:35.554Z,21.9
2017-09-29T00:40:35.693Z,21.9
2017-09-29T00:42:35.799Z,21.9
2017-09-29T00:44:35.905Z,21.9
2017-09-29T00:46:36.229Z,21.9
2017-09-29T00:48:36.325Z,21.9
2017-09-29T00:50:36.411Z,21.299999999999997
2017-09-29T00:52:36.570Z,21.9
2017-09-29T00:54:36.654Z,21.299999999999997
2017-09-29T00:56:36.791Z,21.9
2017-09-29T00:58:36.959Z,21.9
2017-09-29T01:00:37.021Z,21.9
2017-09-29T01:02:37.356Z,22.4
2017-09-29T01:04:37.491Z,21.9
2017-09-29T01:06:37.791Z,21.299999999999997
2017-09-29T01:08:37.839Z,21.299999999999997
2017-09-29T01:10:37.978Z,21.9
2017-09-29T01:12:38.134Z,21.299999999999997
2017-09-29T01:14:39.030Z,21.9
2017-09-29T01:16:38.343Z,21.9
2017-09-29T01:18:38.470Z,21.9
2017-09-29T01:20:38.595Z,21.299999999999997
2017-09-29T01:22:38.682Z,20.799999999999997
2017-09-29T01:24:38.803Z,21.9
2017-09-29T01:26:39.152Z,21.299999999999997
2017-09-29T01:28:39.201Z,21.299999999999997
2017-09-29T01:30:39.336Z,21.299999999999997
2017-09-29T01:32:39.462Z,21.9
2017-09-29T01:34:40.440Z,21.299999999999997
2017-09-29T01:36:39.687Z,20.799999999999997
2017-09-29T01:38:39.798Z,20.799999999999997
2017-09-29T01:40:39.942Z,20.799999999999997
2017-09-29T01:42:40.093Z,20.799999999999997
2017-09-29T01:44:40.235Z,21.9
2017-09-29T01:46:40.472Z,21.299999999999997
2017-09-29T01:48:40.550Z,21.9
2017-09-29T01:50:40.690Z,21.299999999999997
2017-09-29T01:52:40.757Z,21.299999999999997
2017-09-29T01:54:40.911Z,21.9
2017-09-29T01:56:41.090Z,20.799999999999997
2017-09-29T01:58:41.219Z,21.299999999999997
2017-09-29T02:00:41.378Z,20.799999999999997
2017-09-29T02:02:41.497Z,21.9
2017-09-29T02:04:41.668Z,20.799999999999997
2017-09-29T02:06:41.775Z,21.299999999999997
2017-09-29T02:08:41.918Z,21.299999999999997
2017-09-29T02:10:42.047Z,21.9
2017-09-29T02:12:42.140Z,21.299999999999997
2017-09-29T02:14:42.265Z,20.799999999999997
2017-09-29T02:16:42.433Z,21.299999999999997
2017-09-29T02:18:42.642Z,21.299999999999997
2017-09-29T02:20:42.653Z,20.799999999999997
2017-09-29T02:22:42.799Z,21.299999999999997
2017-09-29T02:24:42.928Z,20.799999999999997
2017-09-29T02:26:43.039Z,21.299999999999997
2017-09-29T02:28:43.199Z,20.799999999999997
2017-09-29T02:30:43.502Z,21.299999999999997
2017-09-29T02:32:43.618Z,21.299999999999997
2017-09-29T02:34:43.757Z,20.799999999999997
2017-09-29T02:36:43.876Z,20.799999999999997
2017-09-29T02:38:44.045Z,20.799999999999997
2017-09-29T02:40:44.163Z,21.299999999999997
2017-09-29T02:42:44.266Z,20.799999999999997
2017-09-29T02:44:44.455Z,21.299999999999997
2017-09-29T02:46:44.712Z,21.299999999999997
2017-09-29T02:48:44.806Z,21.299999999999997
2017-09-29T02:50:44.953Z,20.799999999999997
2017-09-29T02:52:45.196Z,20.799999999999997
2017-09-29T02:54:45.210Z,20.799999999999997
2017-09-29T02:56:45.450Z,21.9
2017-09-29T02:58:45.590Z,19.700000000000003
2017-09-29T03:00:45.706Z,20.799999999999997
2017-09-29T03:02:45.872Z,20.799999999999997
2017-09-29T03:04:46.011Z,20.799999999999997
2017-09-29T03:06:46.472Z,20.799999999999997
2017-09-29T03:08:46.258Z,20.799999999999997
2017-09-29T03:10:46.409Z,20.799999999999997
2017-09-29T03:12:46.560Z,20.799999999999997
2017-09-29T03:14:46.681Z,20.799999999999997
2017-09-29T03:16:46.821Z,20.799999999999997
2017-09-29T03:18:47.141Z,20.799999999999997
2017-09-29T03:20:47.086Z,20.799999999999997
2017-09-29T03:22:47.235Z,20.799999999999997
2017-09-29T03:24:47.422Z,20.200000000000003
2017-09-29T03:26:47.484Z,20.799999999999997
2017-09-29T03:28:52.648Z,20.799999999999997
2017-09-29T03:30:47.785Z,21.299999999999997
2017-09-29T03:32:47.993Z,20.200000000000003
2017-09-29T03:34:48.003Z,20.799999999999997
2017-09-29T03:36:48.109Z,20.799999999999997
2017-09-29T03:38:48.300Z,20.799999999999997
2017-09-29T03:40:48.339Z,20.799999999999997
2017-09-29T03:42:48.482Z,20.799999999999997
2017-09-29T03:44:48.615Z,20.799999999999997
2017-09-29T03:46:48.701Z,20.799999999999997
2017-09-29T03:48:48.860Z,20.799999999999997
2017-09-29T03:50:48.952Z,21.299999999999997
2017-09-29T03:52:49.104Z,20.799999999999997
2017-09-29T03:54:49.229Z,20.799999999999997
2017-09-29T03:56:49.341Z,20.799999999999997
2017-09-29T03:58:49.502Z,19.700000000000003
2017-09-29T04:00:49.574Z,20.799999999999997
2017-09-29T04:02:49.708Z,20.799999999999997
2017-09-29T04:04:49.890Z,20.200000000000003
2017-09-29T04:06:50.110Z,20.799999999999997
2017-09-29T04:08:50.087Z,21.299999999999997
2017-09-29T04:10:50.357Z,20.799999999999997
2017-09-29T04:12:50.368Z,20.799999999999997
2017-09-29T04:14:50.505Z,20.799999999999997
2017-09-29T04:16:50.584Z,20.799999999999997
2017-09-29T04:18:50.725Z,20.799999999999997
2017-09-29T04:20:50.923Z,20.799999999999997
2017-09-29T04:22:50.961Z,20.799999999999997
2017-09-29T04:24:51.063Z,21.299999999999997
2017-09-29T04:26:51.613Z,20.799999999999997
2017-09-29T04:28:51.339Z,20.799999999999997
2017-09-29T04:30:51.449Z,20.799999999999997
2017-09-29T04:32:51.572Z,20.799999999999997
2017-09-29T04:34:51.937Z,20.799999999999997
2017-09-29T04:36:52.438Z,21.299999999999997
2017-09-29T04:38:52.149Z,20.799999999999997
2017-09-29T04:40:52.290Z,20.799999999999997
2017-09-29T04:42:52.437Z,20.799999999999997
2017-09-29T04:44:52.533Z,20.799999999999997
2017-09-29T04:46:52.645Z,20.799999999999997
2017-09-29T04:48:52.817Z,20.799999999999997
2017-09-29T04:50:53.121Z,20.799999999999997
2017-09-29T04:52:53.072Z,20.799999999999997
2017-09-29T04:54:53.231Z,20.799999999999997
2017-09-29T04:56:53.369Z,21.299999999999997
2017-09-29T04:58:53.429Z,20.799999999999997
2017-09-29T05:00:53.564Z,20.799999999999997
2017-09-29T05:02:53.710Z,20.799999999999997
2017-09-29T05:04:53.828Z,20.799999999999997
2017-09-29T05:06:54.001Z,20.799999999999997
2017-09-29T05:08:54.072Z,20.799999999999997
2017-09-29T05:10:54.217Z,20.799999999999997
2017-09-29T05:12:54.593Z,20.799999999999997
2017-09-29T05:14:54.500Z,20.799999999999997
2017-09-29T05:16:54.564Z,20.799999999999997
2017-09-29T05:18:55.071Z,20.799999999999997
2017-09-29T05:20:55.160Z,20.799999999999997
2017-09-29T05:22:55.334Z,20.799999999999997
2017-09-29T05:24:55.474Z,20.799999999999997
2017-09-29T05:26:55.617Z,20.200000000000003
2017-09-29T05:28:55.786Z,20.799999999999997
2017-09-29T05:30:56.073Z,20.799999999999997
2017-09-29T05:32:56.093Z,20.799999999999997
2017-09-29T05:34:56.211Z,20.799999999999997
2017-09-29T05:36:56.361Z,20.799999999999997
2017-09-29T05:38:56.513Z,20.799999999999997
2017-09-29T05:40:56.679Z,20.799999999999997
2017-09-29T05:42:56.824Z,20.799999999999997
2017-09-29T05:44:57.110Z,20.200000000000003
2017-09-29T05:46:57.225Z,20.200000000000003
2017-09-29T05:48:57.383Z,20.799999999999997
2017-09-29T05:50:57.480Z,20.799999999999997
2017-09-29T05:52:57.580Z,20.799999999999997
2017-09-29T05:54:57.729Z,20.799999999999997
2017-09-29T05:56:57.825Z,21.299999999999997
2017-09-29T05:58:57.955Z,20.799999999999997
2017-09-29T06:00:58.090Z,20.799999999999997
2017-09-29T06:02:58.205Z,20.799999999999997
2017-09-29T06:04:58.293Z,21.299999999999997
2017-09-29T06:06:58.438Z,20.799999999999997
2017-09-29T06:08:58.568Z,21.299999999999997
2017-09-29T06:10:58.657Z,21.299999999999997
2017-09-29T06:12:58.794Z,21.9
2017-09-29T06:14:58.922Z,21.299999999999997
2017-09-29T06:16:59.030Z,21.299999999999997
2017-09-29T06:18:59.375Z,20.799999999999997
2017-09-29T06:20:59.473Z,20.799999999999997
2017-09-29T06:22:59.611Z,20.799999999999997
2017-09-29T06:24:59.848Z,21.299999999999997
2017-09-29T06:26:59.997Z,21.299999999999997
2017-09-29T06:29:00.094Z,21.299999999999997
2017-09-29T06:31:00.215Z,21.299999999999997
2017-09-29T06:33:00.330Z,21.9
2017-09-29T06:35:00.459Z,20.799999999999997
2017-09-29T06:37:00.864Z,20.799999999999997
2017-09-29T06:39:00.820Z,21.9
2017-09-29T06:41:00.941Z,21.299999999999997
2017-09-29T06:43:01.460Z,20.799999999999997
2017-09-29T06:45:01.617Z,21.299999999999997
2017-09-29T06:47:01.790Z,20.799999999999997
2017-09-29T06:49:02.221Z,21.9
2017-09-29T06:51:02.342Z,21.299999999999997
2017-09-29T06:53:02.499Z,20.799999999999997
2017-09-29T06:55:02.594Z,21.299999999999997
2017-09-29T06:57:02.711Z,21.299999999999997
2017-09-29T06:59:02.853Z,20.799999999999997
2017-09-29T07:01:02.980Z,20.799999999999997
2017-09-29T07:03:03.112Z,20.799999999999997
2017-09-29T07:05:03.216Z,20.799999999999997
2017-09-29T07:07:03.378Z,20.799999999999997
2017-09-29T07:09:03.701Z,21.9
2017-09-29T07:11:03.640Z,21.299999999999997
2017-09-29T07:13:03.852Z,21.299999999999997
2017-09-29T07:15:03.935Z,21.299999999999997
2017-09-29T07:17:04.073Z,21.299999999999997
2017-09-29T07:19:04.199Z,20.799999999999997
2017-09-29T07:21:04.347Z,21.299999999999997
2017-09-29T07:23:04.482Z,21.299999999999997
2017-09-29T07:25:04.619Z,21.299999999999997
2017-09-29T07:27:04.731Z,21.299999999999997
2017-09-29T07:29:04.849Z,20.799999999999997
2017-09-29T07:31:04.982Z,21.299999999999997
2017-09-29T07:33:05.148Z,20.799999999999997
2017-09-29T07:35:05.246Z,21.9
2017-09-29T07:37:05.393Z,21.9
2017-09-29T07:39:05.567Z,21.9
2017-09-29T07:41:05.676Z,22.4
2017-09-29T07:43:05.979Z,21.9
2017-09-29T07:45:06.165Z,21.9
2017-09-29T07:47:06.223Z,21.299999999999997
2017-09-29T07:49:06.344Z,22.4
2017-09-29T07:51:06.484Z,21.9
2017-09-29T07:53:06.651Z,22.4
2017-09-29T07:55:06.808Z,22.4
2017-09-29T07:57:06.880Z,22.4
2017-09-29T07:59:07.145Z,22.9
2017-09-29T08:01:07.515Z,22.4
2017-09-29T08:03:07.594Z,21.9
2017-09-29T08:05:07.755Z,22.4
2017-09-29T08:07:07.985Z,22.4
2017-09-29T08:09:08.065Z,22.9
2017-09-29T08:11:08.184Z,22.9
2017-09-29T08:13:08.393Z,22.4
2017-09-29T08:15:08.438Z,21.9
2017-09-29T08:17:08.653Z,22.4
2017-09-29T08:19:08.804Z,22.9
2017-09-29T08:21:08.927Z,21.9
2017-09-29T08:23:09.024Z,22.4
2017-09-29T08:25:09.317Z,22.9
2017-09-29T08:27:09.424Z,22.4
2017-09-29T08:29:10.372Z,22.4
2017-09-29T08:31:09.709Z,22.9
2017-09-29T08:33:09.833Z,22.9
2017-09-29T08:35:09.928Z,21.9
2017-09-29T08:37:10.048Z,22.9
2017-09-29T08:39:10.332Z,22.9
2017-09-29T08:41:10.292Z,22.4
2017-09-29T08:43:10.397Z,22.4
2017-09-29T08:45:10.519Z,22.9
2017-09-29T08:47:10.668Z,22.9
2017-09-29T08:49:10.761Z,22.9
2017-09-29T08:51:10.919Z,22.9
2017-09-29T08:53:11.041Z,22.4
2017-09-29T08:55:11.162Z,22.9
2017-09-29T08:57:11.286Z,22.9
2017-09-29T08:59:11.444Z,21.9
2017-09-29T09:01:11.597Z,22.9
2017-09-29T09:03:11.686Z,22.9
2017-09-29T09:05:11.792Z,22.9
2017-09-29T09:07:11.910Z,22.4
2017-09-29T09:09:12.017Z,22.9
2017-09-29T09:11:12.338Z,22.9
2017-09-29T09:13:12.241Z,22.9
2017-09-29T09:15:12.366Z,22.9
2017-09-29T09:17:12.492Z,22.9
2017-09-29T09:19:12.732Z,22.9
2017-09-29T09:21:12.832Z,22.9
2017-09-29T09:23:12.970Z,22.9
2017-09-29T09:25:13.086Z,22.9
2017-09-29T09:27:13.258Z,22.9
2017-09-29T09:29:13.376Z,22.9
2017-09-29T09:31:13.532Z,22.9
2017-09-29T09:33:13.855Z,23.5
2017-09-29T09:35:14.075Z,22.9
2017-09-29T09:37:14.197Z,23.5
2017-09-29T09:39:14.335Z,22.9
2017-09-29T09:41:14.441Z,23.5
2017-09-29T09:43:14.597Z,23.5
2017-09-29T09:45:14.757Z,22.9
2017-09-29T09:47:14.989Z,23.5
2017-09-29T09:49:15.047Z,23.5
2017-09-29T09:51:15.195Z,23.5
2017-09-29T09:53:15.378Z,23.5
2017-09-29T09:55:15.415Z,24
2017-09-29T09:57:15.542Z,23.5
2017-09-29T09:59:15.676Z,24
2017-09-29T10:01:15.807Z,23.5
2017-09-29T10:03:15.915Z,24
2017-09-29T10:05:16.054Z,24
2017-09-29T10:07:16.234Z,23.5
2017-09-29T10:09:16.318Z,24
2017-09-29T10:11:16.464Z,24
2017-09-29T10:13:16.574Z,24
2017-09-29T10:15:16.686Z,24
2017-09-29T10:17:16.812Z,24
2017-09-29T10:19:17.183Z,24
2017-09-29T10:21:17.282Z,23.5
2017-09-29T10:23:17.474Z,23.5
2017-09-29T10:25:17.546Z,24
2017-09-29T10:27:17.681Z,24
2017-09-29T10:29:17.777Z,23.5
2017-09-29T10:31:17.957Z,23.5
2017-09-29T10:33:18.112Z,23.5
2017-09-29T10:35:18.215Z,24
2017-09-29T10:37:18.316Z,24
2017-09-29T10:39:18.453Z,24.5
2017-09-29T10:41:18.571Z,24
2017-09-29T10:43:18.689Z,23.5
2017-09-29T10:45:18.873Z,24
2017-09-29T10:47:19.080Z,24.5
2017-09-29T10:49:19.164Z,24
2017-09-29T10:51:19.298Z,24
2017-09-29T10:53:19.524Z,24.5
2017-09-29T10:55:19.614Z,24
2017-09-29T10:57:19.795Z,24
2017-09-29T10:59:19.967Z,24
2017-09-29T11:01:20.048Z,24
2017-09-29T11:03:20.366Z,24.5
2017-09-29T11:05:20.313Z,24
2017-09-29T11:07:20.424Z,24
2017-09-29T11:09:20.585Z,24.5
2017-09-29T11:11:20.742Z,24
2017-09-29T11:13:20.896Z,24
2017-09-29T11:15:20.997Z,24
2017-09-29T11:17:21.150Z,24.5
2017-09-29T11:19:21.244Z,24
2017-09-29T11:21:21.386Z,25.1
2017-09-29T11:23:21.531Z,24
2017-09-29T11:25:21.765Z,24.5
2017-09-29T11:27:21.855Z,24
2017-09-29T11:29:21.982Z,25.1
2017-09-29T11:31:22.232Z,24.5
2017-09-29T11:33:22.361Z,24
2017-09-29T11:35:22.473Z,24.5
2017-09-29T11:37:22.598Z,24.5
2017-09-29T11:39:22.732Z,25.1
2017-09-29T11:41:22.902Z,24
2017-09-29T11:43:22.984Z,24
2017-09-29T11:45:23.273Z,24.5
2017-09-29T11:47:23.286Z,24
2017-09-29T11:49:23.401Z,25.1
2017-09-29T11:51:23.563Z,24
2017-09-29T11:53:23.689Z,24.5
2017-09-29T11:55:23.829Z,24.5
2017-09-29T11:57:23.921Z,24.5
2017-09-29T11:59:24.123Z,25.1
2017-09-29T12:01:24.257Z,23.5
2017-09-29T12:03:24.504Z,24.5
2017-09-29T12:05:24.518Z,24
2017-09-29T12:07:24.597Z,24
2017-09-29T12:09:24.736Z,25.1
2017-09-29T12:11:24.895Z,24
2017-09-29T12:13:25.030Z,25.1
2017-09-29T12:15:25.530Z,25.1
2017-09-29T12:17:25.437Z,24
2017-09-29T12:19:25.441Z,25.1
2017-09-29T12:21:25.595Z,24.5
2017-09-29T12:23:25.758Z,25.1
2017-09-29T12:25:25.886Z,25.1
2017-09-29T12:27:26.005Z,24.5
2017-09-29T12:29:26.117Z,25.1
2017-09-29T12:31:26.324Z,24
2017-09-29T12:33:26.410Z,24.5
2017-09-29T12:35:26.538Z,24.5
2017-09-29T12:37:26.698Z,25.1
2017-09-29T12:39:26.825Z,25.1
2017-09-29T12:41:27.065Z,25.1
2017-09-29T12:43:27.200Z,25.1
2017-09-29T12:45:27.377Z,25.1
2017-09-29T12:47:27.378Z,24
2017-09-29T12:49:27.527Z,24
2017-09-29T12:51:27.621Z,25.1
2017-09-29T12:53:27.796Z,24.5
2017-09-29T12:55:27.861Z,25.1
2017-09-29T12:57:28.004Z,24.5
2017-09-29T12:59:28.195Z,24.5
2017-09-29T13:01:28.250Z,25.1
2017-09-29T13:03:28.388Z,24.5
2017-09-29T13:05:28.682Z,25.1
2017-09-29T13:07:28.617Z,24.5
2017-09-29T13:09:28.776Z,24.5
2017-09-29T13:11:28.965Z,24.5
2017-09-29T13:13:29.036Z,25.1
2017-09-29T13:15:29.183Z,25.1
2017-09-29T13:17:29.393Z,25.1
2017-09-29T13:19:29.622Z,25.1
2017-09-29T13:21:29.602Z,25.1
2017-09-29T13:23:29.725Z,25.1
2017-09-29T13:25:29.881Z,25.1
2017-09-29T13:27:29.988Z,25.1
2017-09-29T13:29:30.123Z,25.1
2017-09-29T13:31:30.266Z,24.5
2017-09-29T13:33:30.506Z,25.1
2017-09-29T13:35:30.682Z,24.5
2017-09-29T13:37:30.791Z,24
2017-09-29T13:39:30.902Z,24.5
2017-09-29T13:41:31.045Z,25.1
2017-09-29T13:43:31.208Z,25.1
2017-09-29T13:45:31.301Z,25.1
2017-09-29T13:47:31.484Z,25.1
2017-09-29T13:49:31.591Z,25.1
2017-09-29T13:51:31.847Z,25.1
2017-09-29T13:53:31.886Z,24.5
2017-09-29T13:55:31.980Z,25.1
2017-09-29T13:57:32.066Z,25.1
2017-09-29T13:59:32.200Z,24.5
2017-09-29T14:01:32.341Z,25.1
2017-09-29T14:03:32.445Z,24
2017-09-29T14:05:32.600Z,25.1
2017-09-29T14:07:32.711Z,25.1
2017-09-29T14:09:32.959Z,25.1
2017-09-29T14:11:33.024Z,24.5
2017-09-29T14:13:33.173Z,25.1
2017-09-29T14:15:33.341Z,24.5
2017-09-29T14:17:33.454Z,25.1
2017-09-29T14:19:33.654Z,25.1
2017-09-29T14:21:33.763Z,24.5
2017-09-29T14:23:38.893Z,24
2017-09-29T14:25:34.030Z,24.5
2017-09-29T14:27:34.225Z,25.1
2017-09-29T14:29:34.228Z,24
2017-09-29T14:31:34.385Z,24.5
2017-09-29T14:33:34.942Z,24
2017-09-29T14:35:34.621Z,25.1
2017-09-29T14:37:34.983Z,25.1
2017-09-29T14:39:34.859Z,25.1
2017-09-29T14:41:35.044Z,25.1
2017-09-29T14:43:35.165Z,25.1
2017-09-29T14:45:35.274Z,25.1
2017-09-29T14:47:35.388Z,25.1
2017-09-29T14:49:35.700Z,25.1
2017-09-29T14:51:35.654Z,24.5
2017-09-29T14:53:35.765Z,25.1
2017-09-29T14:55:36.190Z,24.5
2017-09-29T14:57:36.015Z,25.1
2017-09-29T14:59:36.373Z,25.1
2017-09-29T15:01:36.246Z,24.5
2017-09-29T15:03:36.375Z,25.1
2017-09-29T15:05:36.502Z,24.5
2017-09-29T15:07:36.693Z,24.5
2017-09-29T15:09:36.892Z,24
2017-09-29T15:11:36.831Z,24.5
2017-09-29T15:13:37.025Z,25.1
2017-09-29T15:15:37.174Z,25.1
2017-09-29T15:17:37.239Z,25.1
2017-09-29T15:19:37.394Z,24.5
2017-09-29T15:21:37.621Z,25.1
2017-09-29T15:23:37.686Z,25.1
2017-09-29T15:25:37.794Z,25.1
2017-09-29T15:27:38.742Z,25.1
2017-09-29T15:29:38.036Z,24.5
2017-09-29T15:31:38.195Z,25.1
2017-09-29T15:33:38.398Z,25.1
2017-09-29T15:35:38.582Z,25.1
2017-09-29T15:37:38.544Z,24.5
2017-09-29T15:39:38.684Z,24.5
2017-09-29T15:41:38.961Z,24.5
2017-09-29T15:43:39.061Z,25.1
2017-09-29T15:45:39.135Z,24.5
2017-09-29T15:47:39.272Z,25.1
2017-09-29T15:49:39.404Z,24
2017-09-29T15:51:39.566Z,24.5
2017-09-29T15:53:39.650Z,24.5
2017-09-29T15:55:39.783Z,24
2017-09-29T15:57:39.917Z,24.5
2017-09-29T15:59:40.042Z,25.1
2017-09-29T16:01:40.162Z,24.5
2017-09-29T16:03:40.355Z,24.5
2017-09-29T16:05:40.503Z,24
2017-09-29T16:07:40.721Z,24.5
2017-09-29T16:09:40.852Z,24
2017-09-29T16:11:40.960Z,24.5
2017-09-29T16:13:41.103Z,24.5
2017-09-29T16:15:41.257Z,25.1
2017-09-29T16:17:41.379Z,24
2017-09-29T16:19:41.624Z,24.5
2017-09-29T16:21:41.758Z,24.5
2017-09-29T16:23:41.927Z,24
2017-09-29T16:25:41.982Z,24.5
2017-09-29T16:27:42.304Z,24.5
2017-09-29T16:29:42.582Z,24.5
2017-09-29T16:31:42.390Z,24
2017-09-29T16:33:42.681Z,25.1
2017-09-29T16:35:42.616Z,24
2017-09-29T16:37:42.778Z,24
2017-09-29T16:39:42.999Z,24
2017-09-29T16:41:43.017Z,24
2017-09-29T16:43:43.275Z,24.5
2017-09-29T16:45:43.300Z,24
2017-09-29T16:47:43.404Z,24
2017-09-29T16:49:43.575Z,24
2017-09-29T16:51:43.706Z,24.5
2017-09-29T16:53:43.803Z,24
2017-09-29T16:55:43.963Z,24
2017-09-29T16:57:44.116Z,24.5
2017-09-29T16:59:44.295Z,24
2017-09-29T17:01:44.462Z,24.5
2017-09-29T17:03:44.561Z,24
2017-09-29T17:05:44.842Z,24
2017-09-29T17:07:44.815Z,24
2017-09-29T17:09:44.986Z,24
2017-09-29T17:11:45.099Z,24
2017-09-29T17:13:45.230Z,24
2017-09-29T17:15:45.428Z,24
2017-09-29T17:17:45.776Z,24.5
2017-09-29T17:19:45.776Z,24
2017-09-29T17:21:46.003Z,24
2017-09-29T17:23:46.032Z,23.5
2017-09-29T17:25:46.213Z,24
2017-09-29T17:27:46.323Z,23.5
2017-09-29T17:29:46.404Z,24
2017-09-29T17:31:46.746Z,24
2017-09-29T17:33:47.578Z,24
2017-09-29T17:35:46.912Z,24
2017-09-29T17:37:46.971Z,24
2017-09-29T17:39:47.135Z,24
2017-09-29T17:41:47.231Z,23.5
2017-09-29T17:43:47.389Z,23.5
2017-09-29T17:45:47.526Z,23.5
2017-09-29T17:47:47.625Z,23.5
2017-09-29T17:49:47.774Z,23.5
2017-09-29T17:51:47.915Z,23.5
2017-09-29T17:53:48.163Z,23.5
2017-09-29T17:55:48.274Z,22.9
2017-09-29T17:57:48.390Z,23.5
2017-09-29T17:59:48.492Z,23.5
2017-09-29T18:01:48.638Z,23.5
2017-09-29T18:03:48.742Z,23.5
2017-09-29T18:05:48.910Z,23.5
2017-09-29T18:07:48.983Z,22.9
2017-09-29T18:09:49.223Z,22.9
2017-09-29T18:11:49.647Z,22.9
2017-09-29T18:13:49.744Z,23.5
2017-09-29T18:15:49.851Z,22.9
2017-09-29T18:17:50.014Z,22.9
2017-09-29T18:19:50.104Z,22.9
2017-09-29T18:21:50.225Z,22.9
2017-09-29T18:23:50.360Z,22.9
2017-09-29T18:25:50.627Z,23.5
2017-09-29T18:27:50.723Z,22.9
2017-09-29T18:29:50.838Z,22.9
2017-09-29T18:31:56.123Z,22.9
2017-09-29T18:33:51.170Z,22.9
2017-09-29T18:35:51.273Z,22.9
2017-09-29T18:37:51.399Z,22.9
2017-09-29T18:39:51.681Z,22.9
2017-09-29T18:41:51.624Z,22.9
2017-09-29T18:43:51.795Z,22.9
2017-09-29T18:45:51.897Z,22.9
2017-09-29T18:47:52.001Z,22.9
2017-09-29T18:49:52.201Z,22.9
2017-09-29T18:51:52.264Z,22.9
2017-09-29T18:53:52.406Z,22.9
2017-09-29T18:55:52.547Z,22.9
2017-09-29T18:57:52.718Z,22.9
2017-09-29T18:59:52.894Z,22.9
2017-09-29T19:01:53.041Z,23.5
2017-09-29T19:03:53.175Z,22.9
2017-09-29T19:05:53.417Z,23.5
2017-09-29T19:07:53.548Z,23.5
2017-09-29T19:09:53.663Z,22.9
2017-09-29T19:11:53.954Z,22.4
2017-09-29T19:13:59.172Z,22.9
2017-09-29T19:15:54.175Z,22.9
2017-09-29T19:17:54.344Z,22.9
2017-09-29T19:19:54.444Z,22.9
2017-09-29T19:21:54.544Z,21.9
2017-09-29T19:23:54.680Z,22.9
2017-09-29T19:25:54.880Z,22.9
2017-09-29T19:27:54.941Z,21.9
2017-09-29T19:29:55.022Z,22.4
2017-09-29T19:31:55.165Z,22.9
2017-09-29T19:33:55.390Z,22.9
2017-09-29T19:35:55.493Z,22.9
2017-09-29T19:37:55.633Z,22.9
2017-09-29T19:39:55.706Z,22.9
2017-09-29T19:41:55.818Z,22.9
2017-09-29T19:43:55.984Z,22.9
2017-09-29T19:45:56.127Z,22.9
2017-09-29T19:47:56.369Z,22.4
2017-09-29T19:49:56.311Z,22.4
2017-09-29T19:51:57.267Z,22.9
2017-09-29T19:53:56.575Z,22.9
2017-09-29T19:55:56.675Z,22.9
2017-09-29T19:57:56.878Z,22.4
2017-09-29T19:59:56.928Z,22.4
2017-09-29T20:01:57.048Z,22.4
2017-09-29T20:03:57.230Z,23.5
2017-09-29T20:05:57.332Z,22.9
2017-09-29T20:07:57.423Z,23.5
2017-09-29T20:09:57.578Z,22.9
2017-09-29T20:11:57.785Z,22.9
2017-09-29T20:13:57.847Z,22.4
2017-09-29T20:15:58.001Z,22.9
2017-09-29T20:17:58.108Z,22.9
2017-09-29T20:19:58.228Z,22.9
2017-09-29T20:21:58.364Z,22.4
2017-09-29T20:23:58.488Z,22.9
2017-09-29T20:25:58.604Z,22.9
2017-09-29T20:27:58.820Z,22.9
2017-09-29T20:29:58.921Z,22.4
2017-09-29T20:31:59.074Z,22.9
2017-09-29T20:33:59.494Z,22.4
2017-09-29T20:35:59.322Z,22.4
2017-09-29T20:37:59.515Z,22.9
2017-09-29T20:39:59.610Z,22.4
2017-09-29T20:41:59.766Z,22.9
2017-09-29T20:43:59.914Z,22.9
2017-09-29T20:46:00.175Z,22.9
2017-09-29T20:48:00.308Z,22.9
2017-09-29T20:50:00.396Z,22.9
2017-09-29T20:52:00.705Z,22.9
2017-09-29T20:54:00.822Z,22.4
2017-09-29T20:56:00.829Z,22.9
2017-09-29T20:58:00.963Z,22.4
2017-09-29T21:00:01.151Z,22.9
2017-09-29T21:02:01.219Z,22.9
2017-09-29T21:04:01.771Z,22.4
2017-09-29T21:06:01.953Z,22.4
2017-09-29T21:08:02.355Z,21.9
2017-09-29T21:10:02.480Z,22.9
2017-09-29T21:12:02.653Z,22.9
2017-09-29T21:14:02.803Z,21.9
2017-09-29T21:16:02.904Z,22.4
2017-09-29T21:18:03.036Z,22.9
2017-09-29T21:20:03.297Z,23.5
2017-09-29T21:22:03.430Z,21.9
2017-09-29T21:24:03.597Z,22.4
2017-09-29T21:26:03.924Z,21.9
2017-09-29T21:28:03.927Z,21.9
2017-09-29T21:30:03.997Z,22.4
2017-09-29T21:32:04.352Z,22.9
2017-09-29T21:34:04.473Z,21.9
2017-09-29T21:36:04.606Z,21.9
2017-09-29T21:38:05.032Z,22.4
2017-09-29T21:40:05.092Z,22.4
2017-09-29T21:42:05.235Z,21.9
2017-09-29T21:44:05.420Z,22.4
2017-09-29T21:46:05.607Z,22.4
2017-09-29T21:48:05.978Z,22.9
2017-09-29T21:50:06.034Z,21.9
2017-09-29T21:52:06.042Z,22.4
2017-09-29T21:54:06.122Z,22.9
2017-09-29T21:56:06.259Z,22.9
2017-09-29T21:58:06.350Z,22.4
2017-09-29T22:00:06.491Z,22.4
2017-09-29T22:02:06.625Z,22.4
2017-09-29T22:04:06.717Z,21.9
2017-09-29T22:06:06.867Z,21.9
2017-09-29T22:08:07.027Z,21.9
2017-09-29T22:10:07.075Z,21.9
2017-09-29T22:12:07.217Z,21.9
2017-09-29T22:14:07.351Z,21.9
2017-09-29T22:16:07.448Z,22.4
2017-09-29T22:18:07.609Z,22.4
2017-09-29T22:20:07.785Z,21.9
2017-09-29T22:22:07.828Z,21.9
2017-09-29T22:24:07.966Z,21.9
2017-09-29T22:26:08.098Z,21.9
2017-09-29T22:28:08.189Z,21.9
2017-09-29T22:30:08.338Z,21.9
2017-09-29T22:32:08.439Z,22.4
2017-09-29T22:34:08.565Z,21.9
2017-09-29T22:36:08.702Z,21.9
2017-09-29T22:38:08.807Z,21.9
2017-09-29T22:40:08.935Z,21.9
2017-09-29T22:42:09.263Z,21.9
2017-09-29T22:44:09.331Z,21.9
2017-09-29T22:46:09.443Z,22.4
2017-09-29T22:48:09.572Z,21.9
2017-09-29T22:50:09.695Z,21.9
2017-09-29T22:52:09.793Z,22.4
2017-09-29T22:54:10.055Z,21.9
2017-09-29T22:56:10.106Z,21.9
2017-09-29T22:58:10.182Z,22.4
2017-09-29T23:00:10.463Z,21.9
2017-09-29T23:02:11.424Z,21.9
2017-09-29T23:04:10.718Z,21.9
2017-09-29T23:06:10.836Z,21.9
2017-09-29T23:08:10.984Z,21.9
2017-09-29T23:10:11.225Z,21.9
2017-09-29T23:12:11.347Z,21.9
2017-09-29T23:14:11.512Z,21.299999999999997
2017-09-29T23:16:11.606Z,21.9
2017-09-29T23:18:11.763Z,21.299999999999997
2017-09-29T23:20:11.927Z,21.9
2017-09-29T23:22:12.010Z,21.9
2017-09-29T23:24:12.170Z,21.9
2017-09-29T23:26:12.486Z,21.9
2017-09-29T23:28:12.406Z,21.9
2017-09-29T23:30:12.693Z,21.299999999999997
2017-09-29T23:32:12.815Z,21.9
2017-09-29T23:34:12.905Z,21.299999999999997
2017-09-29T23:36:13.156Z,21.9
2017-09-29T23:38:13.145Z,21.299999999999997
2017-09-29T23:40:13.257Z,21.299999999999997
2017-09-29T23:42:13.384Z,21.9
2017-09-29T23:44:13.556Z,21.9
2017-09-29T23:46:13.607Z,21.299999999999997
2017-09-29T23:48:13.773Z,21.299999999999997